Nearby METAR Reports

 

KSJC - San Jose, California, USA
Distance from station: NE 14km
Updated: 19/08/2018 15:53
Partly cloudy
Partly cloudy
 Wind from NNW
Wind: NNW 11 km/h
Temperature: 22°C
Dew Point: 13°C
Humidity: 57%
Barometer: 1014.9 hPa
Clouds: Partly cloudy
Visibility: 14 km
Cloud details: Few Clouds 305 m
Partly cloudy 914 m
Partly cloudy 3658 m
2018/08/19 18:53 KSJC 191853Z 33006KT 9SM FEW010 SCT030 SCT120 22/13 A2997 RMK AO2 SLP147 FU FEW010 FU SCT030 T02170133
KNUQ - Moffett Nas/Mtn, California, USA
Distance from station: N 14km
Updated: 19/08/2018 15:56
Clear
Clear
 Wind from N
Wind: N 11 km/h
Temperature: 21°C
Dew Point: 14°C
Humidity: 64%
Barometer: 1015.2 hPa
Clouds: Clear
Visibility: 16 km
2018/08/19 18:56 KNUQ 191856Z 01006KT 10SM CLR 21/14 A2998 RMK AO2 SLP154 T02060139 $
 
KPAO - Palo Alto, California, USA
Distance from station: NNW 23km
Updated: 19/08/2018 15:47
Clear
Clear
 Wind from N
Wind: N 15 km/h
Temperature: 19°C
Dew Point: 14°C
Humidity: 73%
Barometer: 1015.6 hPa
Clouds: Clear
Visibility: 13 km
2018/08/19 18:47 KPAO 191847Z 36008KT 8SM SKC 19/14 A2999
KRHV - San Jose/Reid, California, USA
Distance from station: ENE 19km
Updated: 19/08/2018 15:50
Clear
Clear
 Wind from calm
Wind: Calm
Temperature: 25°C
Dew Point: 14°C
Humidity: 51%
Barometer: 1014.2 hPa
Clouds: Clear
Visibility: 16 km
2018/08/19 18:50 KRHV 191850Z 00000KT 10SM SKC 25/14 A2995
 
KOAK - Oakland, California, USA
Distance from station: NNW 50km
Updated: 19/08/2018 15:53
Few Clouds
Few Clouds
 Wind from W
Wind: W 11 km/h
Temperature: 17°C
Dew Point: 13°C
Humidity: 77%
Barometer: 1015.2 hPa
Clouds: Few Clouds
Visibility: 11 km
Cloud details: Few Clouds 274 m
Few Clouds 335 m
2018/08/19 18:53 KOAK 191853Z 26006KT 7SM FEW009 FEW011 17/13 A2998 RMK AO2 SLP152 T01720128 $
KSQL - San Carlos Airpo, California, USA
Distance from station: NW 34km
Updated: 19/08/2018 12:48
NOT Current
Mist, Overcast
Mist, Overcast
 Wind from varies
Wind: varies 6 km/h
Temperature: 14°C
Dew Point: 13°C
Humidity: 94%
Barometer: 1015.9 hPa
Summary: Mist
Clouds: Overcast
Visibility: 8 km
Cloud details: Overcast 244 m
2018/08/19 15:48 KSQL 191548Z VRB03KT 5SM BR OVC008 14/13 A3000
 
KSFO - San Francisco, California, USA
Distance from station: NW 49km
Updated: 19/08/2018 15:56
Few Clouds
Few Clouds
 Wind from NW
Wind: NW 24 km/h
Temperature: 18°C
Dew Point: 12°C
Humidity: 68%
Barometer: 1014.9 hPa
Clouds: Few Clouds
Visibility: 16 km
Cloud details: Few Clouds 213 m
2018/08/19 18:56 KSFO 191856Z 32013KT 10SM FEW007 18/12 A2997 RMK AO2 SLP149 T01780122
KE16 - San Martin, California, USA
Distance from station: ESE 43km
Updated: 19/08/2018 15:05
Clear
Clear
 Wind from SE
Wind: SE 9 km/h
Temperature: 23°C
Dew Point: 10°C
Humidity: 44%
Barometer: 1015.6 hPa
Clouds: Clear
Visibility: 14 km
2018/08/19 18:05 KE16 191805Z AUTO 14005KT 9SM CLR 23/10 A2999 RMK AO2
 
KWVI - Watsonville, California, USA
Distance from station: SSE 44km
Updated: 19/08/2018 15:53
Clear
Clear
 Wind from S
Wind: S 15 km/h
Temperature: 17°C
Dew Point: 12°C
Humidity: 73%
Barometer: 1015.9 hPa
Clouds: Clear
Visibility: 16 km
2018/08/19 18:53 KWVI 191853Z AUTO 19008KT 10SM CLR 17/12 A3000 RMK AO2 SLP160 T01720122 $
KHAF - Half Moon Bay, California, USA
Distance from station: WNW 50km
Updated: 19/08/2018 16:00
Overcast
Overcast
 Wind from WSW
Wind: WSW 9 km/h
Temperature: 14°C
Dew Point: 12°C
Humidity: 88%
Barometer: 1016.6 hPa
Clouds: Overcast
Visibility: 11 km
Cloud details: Overcast 183 m
2018/08/19 19:00 KHAF 191900Z AUTO 24005KT 7SM OVC006 14/12 A3002 RMK AO2
 
KHWD - Hayward, California, USA
Distance from station: N 44km
Updated: 19/08/2018 15:54
Clear
Clear
 Wind from W
Wind: W 9 km/h
Temperature: 20°C
Dew Point: 13°C
Humidity: 64%
Barometer: 1015.2 hPa
Clouds: Clear
Visibility: 13 km
2018/08/19 18:54 KHWD 191854Z 28005KT 8SM CLR 20/13 A2998 RMK AO2 SLP161 T02000128
KLVK - Livermore, California, USA
Distance from station: NNE 51km
Updated: 19/08/2018 15:53
Smoke, Clear
Smoke, Clear
 Wind from SW
Wind: SW 13 km/h
Temperature: 27°C
Dew Point: 12°C
Humidity: 39%
Barometer: 1013.9 hPa
Summary: Smoke
Clouds: Clear
Visibility: 16 km
2018/08/19 18:53 KLVK 191853Z 23007KT 10SM FU CLR 27/12 A2994 RMK AO2 SLP134 T02720122